sensor_id;sensor_type;location;lat;lon;timestamp;pressure;altitude;pressure_sealevel;temperature;humidity
72444;BME280;60449;52.016;5.414;2022-10-31T08:46:17;101949.22;;;14.12;81.92
72444;BME280;60449;52.016;5.414;2022-10-31T08:47:09;101948.69;;;14.53;81.87
72444;BME280;60449;52.016;5.414;2022-10-31T08:48:18;101943.63;;;14.78;80.87
72444;BME280;60449;52.016;5.414;2022-10-31T08:49:13;101929.56;;;14.98;79.52
72444;BME280;60449;52.016;5.414;2022-10-31T08:50:04;101944.69;;;15.11;78.83
72444;BME280;60449;52.016;5.414;2022-10-31T08:50:56;101945.69;;;15.24;79.75
72444;BME280;60449;52.016;5.414;2022-10-31T08:51:47;101940.31;;;15.17;78.29
72444;BME280;60449;52.016;5.414;2022-10-31T08:52:38;101933.22;;;15.15;79.72
72444;BME280;60449;52.016;5.414;2022-10-31T08:53:27;101933.97;;;14.93;80.02
72444;BME280;60449;52.016;5.414;2022-10-31T08:54:19;101931.47;;;15.18;79.66
72444;BME280;60449;52.016;5.414;2022-10-31T08:55:30;101928.00;;;15.37;79.07
72444;BME280;60449;52.016;5.414;2022-10-31T08:56:21;101936.03;;;15.50;78.61
72444;BME280;60449;52.016;5.414;2022-10-31T08:57:11;101935.16;;;15.51;78.77
72444;BME280;60449;52.016;5.414;2022-10-31T08:58:02;101939.63;;;15.66;78.49
72444;BME280;60449;52.016;5.414;2022-10-31T08:58:53;101938.75;;;15.68;78.05
72444;BME280;60449;52.016;5.414;2022-10-31T08:59:44;101935.22;;;15.66;78.45
72444;BME280;60449;52.016;5.414;2022-10-31T09:00:34;101945.88;;;15.71;77.63
72444;BME280;60449;52.016;5.414;2022-10-31T09:01:27;101932.56;;;15.69;78.11
72444;BME280;60449;52.016;5.414;2022-10-31T09:02:18;101939.53;;;15.42;78.16
72444;BME280;60449;52.016;5.414;2022-10-31T09:03:11;101934.25;;;15.50;78.73
72444;BME280;60449;52.016;5.414;2022-10-31T09:04:02;101940.50;;;15.57;78.71
72444;BME280;60449;52.016;5.414;2022-10-31T09:04:52;101943.97;;;15.43;78.70
72444;BME280;60449;52.016;5.414;2022-10-31T09:05:42;101937.00;;;15.64;78.11
72444;BME280;60449;52.016;5.414;2022-10-31T09:06:41;101943.25;;;15.85;78.25
72444;BME280;60449;52.016;5.414;2022-10-31T09:07:31;101940.59;;;15.85;78.23
72444;BME280;60449;52.016;5.414;2022-10-31T09:08:22;101937.88;;;15.76;78.01
72444;BME280;60449;52.016;5.414;2022-10-31T09:09:13;101938.84;;;15.90;78.13
72444;BME280;60449;52.016;5.414;2022-10-31T09:10:03;101937.06;;;15.89;78.17
72444;BME280;60449;52.016;5.414;2022-10-31T09:10:56;101933.47;;;15.78;78.05
72444;BME280;60449;52.016;5.414;2022-10-31T09:11:46;101934.34;;;15.67;78.01
72444;BME280;60449;52.016;5.414;2022-10-31T09:12:36;101933.50;;;15.81;78.31
72444;BME280;60449;52.016;5.414;2022-10-31T09:13:32;101923.75;;;15.80;77.75
72444;BME280;60449;52.016;5.414;2022-10-31T09:14:23;101928.16;;;15.87;78.14
72444;BME280;60449;52.016;5.414;2022-10-31T09:15:19;101928.22;;;16.06;77.71
72444;BME280;60449;52.016;5.414;2022-10-31T09:16:09;101930.91;;;16.04;77.39
72444;BME280;60449;52.016;5.414;2022-10-31T09:17:00;101927.38;;;16.08;76.98
72444;BME280;60449;52.016;5.414;2022-10-31T09:17:53;101926.47;;;16.05;76.63
72444;BME280;60449;52.016;5.414;2022-10-31T09:18:43;101923.81;;;16.03;76.62
72444;BME280;60449;52.016;5.414;2022-10-31T09:19:54;101921.16;;;15.95;76.38
72444;BME280;60449;52.016;5.414;2022-10-31T09:20:47;101921.94;;;15.72;77.32
72444;BME280;60449;52.016;5.414;2022-10-31T09:21:39;101912.13;;;15.56;78.06
72444;BME280;60449;52.016;5.414;2022-10-31T09:22:28;101908.47;;;15.29;78.37
72444;BME280;60449;52.016;5.414;2022-10-31T09:23:21;101907.72;;;15.56;78.35
72444;BME280;60449;52.016;5.414;2022-10-31T09:24:12;101910.44;;;15.72;77.65
72444;BME280;60449;52.016;5.414;2022-10-31T09:25:02;101906.97;;;15.96;77.09
72444;BME280;60449;52.016;5.414;2022-10-31T09:25:53;101901.63;;;15.90;76.96
72444;BME280;60449;52.016;5.414;2022-10-31T09:26:50;101898.97;;;15.95;77.02
72444;BME280;60449;52.016;5.414;2022-10-31T09:27:40;101900.75;;;16.05;76.90
72444;BME280;60449;52.016;5.414;2022-10-31T09:28:30;101895.44;;;16.24;75.88
72444;BME280;60449;52.016;5.414;2022-10-31T09:29:21;101894.56;;;16.08;76.77
72444;BME280;60449;52.016;5.414;2022-10-31T09:30:11;101896.34;;;16.24;76.38
72444;BME280;60449;52.016;5.414;2022-10-31T09:31:01;101894.56;;;16.20;76.52
72444;BME280;60449;52.016;5.414;2022-10-31T09:31:52;101877.69;;;16.37;75.55
72444;BME280;60449;52.016;5.414;2022-10-31T09:32:43;101886.56;;;16.20;76.02
72444;BME280;60449;52.016;5.414;2022-10-31T09:33:34;101887.47;;;16.13;76.63
72444;BME280;60449;52.016;5.414;2022-10-31T09:34:23;101894.56;;;16.11;76.64
72444;BME280;60449;52.016;5.414;2022-10-31T09:35:14;101895.31;;;15.68;78.05
72444;BME280;60449;52.016;5.414;2022-10-31T09:36:03;101900.75;;;15.90;77.87
72444;BME280;60449;52.016;5.414;2022-10-31T09:36:54;101903.41;;;16.07;77.64
72444;BME280;60449;52.016;5.414;2022-10-31T09:37:44;101903.28;;;15.54;78.39
72444;BME280;60449;52.016;5.414;2022-10-31T09:38:34;101900.63;;;15.58;78.63
72444;BME280;60449;52.016;5.414;2022-10-31T09:39:24;101903.28;;;15.54;79.11
72444;BME280;60449;52.016;5.414;2022-10-31T09:40:15;101904.19;;;15.62;79.03
72444;BME280;60449;52.016;5.414;2022-10-31T09:41:15;101901.41;;;15.28;79.30
72444;BME280;60449;52.016;5.414;2022-10-31T09:42:49;101898.81;;;15.51;79.03
72444;BME280;60449;52.016;5.414;2022-10-31T09:43:55;101893.59;;;15.78;78.96
72444;BME280;60449;52.016;5.414;2022-10-31T09:45:00;101903.31;;;15.76;78.31
72444;BME280;60449;52.016;5.414;2022-10-31T09:46:07;101888.31;;;15.95;77.16
72444;BME280;60449;52.016;5.414;2022-10-31T09:47:15;101888.28;;;15.76;78.20
72444;BME280;60449;52.016;5.414;2022-10-31T09:48:43;101896.25;;;15.78;78.44
72444;BME280;60449;52.016;5.414;2022-10-31T09:50:15;101892.78;;;16.13;76.71
72444;BME280;60449;52.016;5.414;2022-10-31T09:51:12;101888.38;;;16.24;75.87
72444;BME280;60449;52.016;5.414;2022-10-31T09:52:16;101893.66;;;15.93;76.73
72444;BME280;60449;52.016;5.414;2022-10-31T09:53:23;101886.47;;;15.73;77.52
72444;BME280;60449;52.016;5.414;2022-10-31T09:54:42;101890.00;;;15.65;78.57
72444;BME280;60449;52.016;5.414;2022-10-31T09:55:47;101888.22;;;15.61;77.88
72444;BME280;60449;52.016;5.414;2022-10-31T09:56:52;101886.44;;;15.49;79.42
72444;BME280;60449;52.016;5.414;2022-10-31T09:57:46;101885.59;;;15.70;78.89
72444;BME280;60449;52.016;5.414;2022-10-31T09:58:43;101890.13;;;16.13;77.25
72444;BME280;60449;52.016;5.414;2022-10-31T09:59:39;101883.84;;;15.83;77.83
72444;BME280;60449;52.016;5.414;2022-10-31T10:00:35;101885.44;;;15.23;79.08
72444;BME280;60449;52.016;5.414;2022-10-31T10:01:42;101889.78;;;15.09;80.19
72444;BME280;60449;52.016;5.414;2022-10-31T10:03:01;101880.06;;;15.12;81.11
72444;BME280;60449;52.016;5.414;2022-10-31T10:04:16;101878.47;;;15.49;80.53
72444;BME280;60449;52.016;5.414;2022-10-31T10:05:24;101878.53;;;15.86;79.73
72444;BME280;60449;52.016;5.414;2022-10-31T10:06:22;101876.78;;;15.86;78.79
72444;BME280;60449;52.016;5.414;2022-10-31T10:07:24;101873.16;;;15.55;78.99
72444;BME280;60449;52.016;5.414;2022-10-31T10:08:26;101866.03;;;15.44;79.46
72444;BME280;60449;52.016;5.414;2022-10-31T10:09:25;101869.44;;;15.03;81.22
72444;BME280;60449;52.016;5.414;2022-10-31T10:10:24;101862.47;;;15.39;80.41
72444;BME280;60449;52.016;5.414;2022-10-31T10:11:46;101863.41;;;15.65;79.54
72444;BME280;60449;52.016;5.414;2022-10-31T10:13:03;101860.59;;;15.10;81.45
72444;BME280;60449;52.016;5.414;2022-10-31T10:16:27;101860.59;;;15.07;81.38
72444;BME280;60449;52.016;5.414;2022-10-31T10:17:41;101864.06;;;14.97;82.32
72444;BME280;60449;52.016;5.414;2022-10-31T10:19:06;101865.94;;;15.15;82.11
72444;BME280;60449;52.016;5.414;2022-10-31T10:20:25;101865.84;;;15.01;82.21
72444;BME280;60449;52.016;5.414;2022-10-31T10:21:45;101862.41;;;15.21;82.04
72444;BME280;60449;52.016;5.414;2022-10-31T10:22:52;101869.59;;;15.45;80.61
72444;BME280;60449;52.016;5.414;2022-10-31T10:24:08;101867.03;;;15.89;79.60
72444;BME280;60449;52.016;5.414;2022-10-31T10:25:15;101853.75;;;15.92;78.55
72444;BME280;60449;52.016;5.414;2022-10-31T10:26:17;101866.88;;;15.36;79.76
72444;BME280;60449;52.016;5.414;2022-10-31T10:27:19;101866.91;;;15.40;80.08
72444;BME280;60449;52.016;5.414;2022-10-31T10:28:57;101862.47;;;15.33;79.62
72444;BME280;60449;52.016;5.414;2022-10-31T10:30:13;101862.28;;;14.90;80.96
72444;BME280;60449;52.016;5.414;2022-10-31T10:31:38;101863.31;;;15.27;81.34
72444;BME280;60449;52.016;5.414;2022-10-31T10:32:46;101857.09;;;15.21;80.67
72444;BME280;60449;52.016;5.414;2022-10-31T10:34:01;101855.34;;;15.23;81.06
72444;BME280;60449;52.016;5.414;2022-10-31T10:35:39;101850.84;;;15.03;81.18
72444;BME280;60449;52.016;5.414;2022-10-31T10:37:12;101853.41;;;14.87;82.30
72444;BME280;60449;52.016;5.414;2022-10-31T10:38:51;101851.59;;;14.83;81.85
72444;BME280;60449;52.016;5.414;2022-10-31T10:39:50;101851.66;;;14.96;81.99
72444;BME280;60449;52.016;5.414;2022-10-31T10:41:20;101838.56;;;15.41;80.09
72444;BME280;60449;52.016;5.414;2022-10-31T10:42:14;101831.47;;;15.41;79.78
72444;BME280;60449;52.016;5.414;2022-10-31T10:43:39;101829.72;;;15.45;79.96
72444;BME280;60449;52.016;5.414;2022-10-31T10:44:50;101817.34;;;15.58;80.10
72444;BME280;60449;52.016;5.414;2022-10-31T10:46:40;101814.69;;;15.67;78.50
72444;BME280;60449;52.016;5.414;2022-10-31T10:47:57;101805.00;;;16.05;77.45
72444;BME280;60449;52.016;5.414;2022-10-31T10:49:19;101804.97;;;16.24;76.54
72444;BME280;60449;52.016;5.414;2022-10-31T10:50:47;101797.91;;;16.17;76.23
72444;BME280;60449;52.016;5.414;2022-10-31T10:51:58;101805.00;;;15.97;77.78
72444;BME280;60449;52.016;5.414;2022-10-31T10:53:09;101807.63;;;15.88;78.30
72444;BME280;60449;52.016;5.414;2022-10-31T10:56:31;101806.75;;;16.28;76.72
72444;BME280;60449;52.016;5.414;2022-10-31T10:58:30;101794.28;;;16.53;75.93
72444;BME280;60449;52.016;5.414;2022-10-31T10:59:26;101790.72;;;16.57;76.40
72444;BME280;60449;52.016;5.414;2022-10-31T11:00:34;101788.03;;;16.61;76.43
72444;BME280;60449;52.016;5.414;2022-10-31T11:01:29;101774.63;;;16.82;75.05
72444;BME280;60449;52.016;5.414;2022-10-31T11:02:32;101772.88;;;16.84;74.69
72444;BME280;60449;52.016;5.414;2022-10-31T11:03:34;101756.03;;;16.79;74.95
72444;BME280;60449;52.016;5.414;2022-10-31T11:04:43;101751.59;;;16.78;75.27
72444;BME280;60449;52.016;5.414;2022-10-31T11:05:54;101747.25;;;16.49;76.07
72444;BME280;60449;52.016;5.414;2022-10-31T11:06:59;101749.94;;;16.43;77.11
72444;BME280;60449;52.016;5.414;2022-10-31T11:09:45;101774.00;;;15.93;78.18
72444;BME280;60449;52.016;5.414;2022-10-31T11:10:30;101765.94;;;16.26;78.27
72444;BME280;60449;52.016;5.414;2022-10-31T11:10:57;101765.94;;;15.75;78.47
72444;BME280;60449;52.016;5.414;2022-10-31T11:11:55;101781.06;;;16.10;77.83
72444;BME280;60449;52.016;5.414;2022-10-31T11:13:04;101773.97;;;16.03;78.45
72444;BME280;60449;52.016;5.414;2022-10-31T11:14:43;101783.72;;;15.91;78.17
72444;BME280;60449;52.016;5.414;2022-10-31T11:16:07;101791.66;;;15.69;78.96
72444;BME280;60449;52.016;5.414;2022-10-31T11:17:17;101781.94;;;16.06;77.83
72444;BME280;60449;52.016;5.414;2022-10-31T11:18:30;101774.84;;;16.17;78.12
72444;BME280;60449;52.016;5.414;2022-10-31T11:19:25;101777.50;;;15.89;78.73
72444;BME280;60449;52.016;5.414;2022-10-31T11:20:30;101776.59;;;15.61;79.64
72444;BME280;60449;52.016;5.414;2022-10-31T11:21:50;101796.09;;;15.63;81.23
72444;BME280;60449;52.016;5.414;2022-10-31T11:23:02;101793.41;;;15.49;81.75
72444;BME280;60449;52.016;5.414;2022-10-31T11:24:36;101780.13;;;15.41;81.31
72444;BME280;60449;52.016;5.414;2022-10-31T11:25:48;101778.38;;;15.58;81.11
72444;BME280;60449;52.016;5.414;2022-10-31T11:26:46;101776.56;;;15.45;80.97
72444;BME280;60449;52.016;5.414;2022-10-31T11:27:46;101769.50;;;15.63;80.75
72444;BME280;60449;52.016;5.414;2022-10-31T11:28:57;101772.16;;;15.81;80.29
72444;BME280;60449;52.016;5.414;2022-10-31T11:30:04;101760.66;;;15.76;79.90
72444;BME280;60449;52.016;5.414;2022-10-31T11:31:07;101757.97;;;15.75;79.84
72444;BME280;60449;52.016;5.414;2022-10-31T11:32:33;101749.13;;;15.85;80.30
72444;BME280;60449;52.016;5.414;2022-10-31T11:33:32;101743.78;;;15.76;80.27
72444;BME280;60449;52.016;5.414;2022-10-31T11:34:44;101743.78;;;15.41;80.25
72444;BME280;60449;52.016;5.414;2022-10-31T11:35:44;101731.34;;;15.11;82.63
72444;BME280;60449;52.016;5.414;2022-10-31T11:36:42;101742.00;;;15.36;81.73
72444;BME280;60449;52.016;5.414;2022-10-31T11:37:41;101725.19;;;15.52;80.87
72444;BME280;60449;52.016;5.414;2022-10-31T11:38:48;101728.72;;;15.48;80.69
72444;BME280;60449;52.016;5.414;2022-10-31T11:39:52;101730.50;;;15.43;80.95
72444;BME280;60449;52.016;5.414;2022-10-31T11:40:55;101731.41;;;15.53;80.85
72444;BME280;60449;52.016;5.414;2022-10-31T11:41:51;101731.41;;;15.81;80.59
72444;BME280;60449;52.016;5.414;2022-10-31T11:42:45;101733.16;;;15.32;81.89
72444;BME280;60449;52.016;5.414;2022-10-31T11:43:39;101740.22;;;15.27;82.09
72444;BME280;60449;52.016;5.414;2022-10-31T11:44:43;101732.28;;;15.39;82.46
72444;BME280;60449;52.016;5.414;2022-10-31T11:45:55;101734.94;;;15.49;81.25
72444;BME280;60449;52.016;5.414;2022-10-31T11:46:59;101725.19;;;15.54;81.27
72444;BME280;60449;52.016;5.414;2022-10-31T11:48:20;101724.31;;;15.61;81.36
72444;BME280;60449;52.016;5.414;2022-10-31T11:49:34;101713.69;;;15.72;81.30
72444;BME280;60449;52.016;5.414;2022-10-31T11:50:39;101705.72;;;15.95;80.63
72444;BME280;60449;52.016;5.414;2022-10-31T11:52:06;101688.75;;;16.29;79.19
72444;BME280;60449;52.016;5.414;2022-10-31T11:53:15;101693.28;;;16.00;79.64
72444;BME280;60449;52.016;5.414;2022-10-31T11:54:22;101689.72;;;16.05;80.02
72444;BME280;60449;52.016;5.414;2022-10-31T11:55:30;101679.06;;;16.12;79.74
72444;BME280;60449;52.016;5.414;2022-10-31T11:56:26;101683.53;;;15.90;80.32
72444;BME280;60449;52.016;5.414;2022-10-31T11:57:24;101678.19;;;16.12;80.13
72444;BME280;60449;52.016;5.414;2022-10-31T11:58:22;101676.41;;;16.19;79.48
72444;BME280;60449;52.016;5.414;2022-10-31T11:59:26;101674.44;;;16.63;78.16
72444;BME280;60449;52.016;5.414;2022-10-31T12:00:53;101669.19;;;16.47;77.88
72444;BME280;60449;52.016;5.414;2022-10-31T12:02:22;101675.38;;;16.49;77.42
72444;BME280;60449;52.016;5.414;2022-10-31T12:03:28;101676.34;;;16.34;78.06
72444;BME280;60449;52.016;5.414;2022-10-31T12:04:40;101679.91;;;16.28;78.15
72444;BME280;60449;52.016;5.414;2022-10-31T12:05:39;101680.00;;;15.94;79.88
72444;BME280;60449;52.016;5.414;2022-10-31T12:06:34;101676.47;;;15.80;79.82
72444;BME280;60449;52.016;5.414;2022-10-31T12:07:28;101672.81;;;16.21;79.27
72444;BME280;60449;52.016;5.414;2022-10-31T12:08:20;101662.19;;;16.21;79.20
72444;BME280;60449;52.016;5.414;2022-10-31T12:13:33;101638.84;;;16.79;76.67
72444;BME280;60449;52.016;5.414;2022-10-31T12:14:52;101633.63;;;16.61;76.60
72444;BME280;60449;52.016;5.414;2022-10-31T12:16:18;101633.44;;;16.92;75.84
72444;BME280;60449;52.016;5.414;2022-10-31T12:17:21;101638.97;;;16.57;77.59
72444;BME280;60449;52.016;5.414;2022-10-31T12:23:22;101622.09;;;16.63;76.58
72444;BME280;60449;52.016;5.414;2022-10-31T12:24:55;101616.63;;;16.80;76.75
72444;BME280;60449;52.016;5.414;2022-10-31T12:26:02;101610.41;;;16.81;76.62
72444;BME280;60449;52.016;5.414;2022-10-31T12:27:14;101604.00;;;17.17;75.70
72444;BME280;60449;52.016;5.414;2022-10-31T12:30:10;101591.50;;;17.22;75.30
72444;BME280;60449;52.016;5.414;2022-10-31T12:31:19;101591.44;;;17.28;74.56
72444;BME280;60449;52.016;5.414;2022-10-31T12:32:32;101602.03;;;17.36;74.35
72444;BME280;60449;52.016;5.414;2022-10-31T12:33:45;101596.91;;;17.14;74.05
72444;BME280;60449;52.016;5.414;2022-10-31T12:35:10;101599.72;;;16.91;75.31
72444;BME280;60449;52.016;5.414;2022-10-31T12:36:29;101589.97;;;16.88;75.78
72444;BME280;60449;52.016;5.414;2022-10-31T12:37:43;101584.63;;;16.90;75.75
72444;BME280;60449;52.016;5.414;2022-10-31T12:39:19;101571.06;;;17.24;75.33
72444;BME280;60449;52.016;5.414;2022-10-31T12:40:51;101577.09;;;17.45;74.77
72444;BME280;60449;52.016;5.414;2022-10-31T12:42:18;101566.00;;;17.83;73.24
72444;BME280;60449;52.016;5.414;2022-10-31T12:43:38;101564.38;;;17.70;72.64
72444;BME280;60449;52.016;5.414;2022-10-31T12:44:52;101562.53;;;17.75;73.29
72444;BME280;60449;52.016;5.414;2022-10-31T12:45:59;101572.16;;;17.90;72.57
72444;BME280;60449;52.016;5.414;2022-10-31T12:47:12;101572.94;;;17.98;72.14
72444;BME280;60449;52.016;5.414;2022-10-31T12:48:45;101568.03;;;17.61;73.28
72444;BME280;60449;52.016;5.414;2022-10-31T12:49:57;101555.53;;;17.68;73.02
72444;BME280;60449;52.016;5.414;2022-10-31T12:50:58;101549.97;;;17.85;72.40
72444;BME280;60449;52.016;5.414;2022-10-31T12:52:10;101552.94;;;17.57;73.20
72444;BME280;60449;52.016;5.414;2022-10-31T12:53:18;101558.22;;;17.63;73.72
72444;BME280;60449;52.016;5.414;2022-10-31T12:56:09;101564.34;;;18.45;70.56
72444;BME280;60449;52.016;5.414;2022-10-31T12:57:23;101567.09;;;18.39;70.74
72444;BME280;60449;52.016;5.414;2022-10-31T12:58:26;101559.22;;;18.30;70.83
72444;BME280;60449;52.016;5.414;2022-10-31T12:59:25;101555.91;;;18.12;71.55
72444;BME280;60449;52.016;5.414;2022-10-31T13:00:20;101555.09;;;18.07;71.79
72444;BME280;60449;52.016;5.414;2022-10-31T13:01:15;101546.59;;;18.39;71.20
72444;BME280;60449;52.016;5.414;2022-10-31T13:02:17;101546.00;;;18.20;70.63
72444;BME280;60449;52.016;5.414;2022-10-31T13:03:23;101544.59;;;17.88;72.40
72444;BME280;60449;52.016;5.414;2022-10-31T13:04:39;101550.34;;;17.51;73.62
72444;BME280;60449;52.016;5.414;2022-10-31T13:05:40;101544.97;;;17.55;73.42
72444;BME280;60449;52.016;5.414;2022-10-31T13:06:36;101542.41;;;17.48;73.82
72444;BME280;60449;52.016;5.414;2022-10-31T13:07:36;101532.38;;;17.70;73.08
72444;BME280;60449;52.016;5.414;2022-10-31T13:08:39;101527.09;;;17.67;72.90
72444;BME280;60449;52.016;5.414;2022-10-31T13:09:40;101529.88;;;17.54;73.98
72444;BME280;60449;52.016;5.414;2022-10-31T13:10:43;101525.75;;;17.24;74.62
72444;BME280;60449;52.016;5.414;2022-10-31T13:11:42;101526.63;;;17.26;74.85
72444;BME280;60449;52.016;5.414;2022-10-31T13:12:35;101523.63;;;17.57;73.90
72444;BME280;60449;52.016;5.414;2022-10-31T13:13:31;101514.41;;;17.84;72.90
72444;BME280;60449;52.016;5.414;2022-10-31T13:14:29;101524.66;;;17.44;74.06
72444;BME280;60449;52.016;5.414;2022-10-31T13:15:35;101515.25;;;17.90;73.36
72444;BME280;60449;52.016;5.414;2022-10-31T13:16:40;101510.72;;;17.95;72.49
72444;BME280;60449;52.016;5.414;2022-10-31T13:17:39;101507.47;;;17.71;73.05
72444;BME280;60449;52.016;5.414;2022-10-31T13:18:38;101505.13;;;17.43;74.11
72444;BME280;60449;52.016;5.414;2022-10-31T13:19:35;101500.81;;;17.31;74.42
72444;BME280;60449;52.016;5.414;2022-10-31T13:20:32;101496.13;;;17.52;74.49
72444;BME280;60449;52.016;5.414;2022-10-31T13:21:35;101498.44;;;17.83;74.24
72444;BME280;60449;52.016;5.414;2022-10-31T13:22:35;101493.38;;;18.29;72.76
72444;BME280;60449;52.016;5.414;2022-10-31T13:23:33;101499.63;;;18.29;71.91
72444;BME280;60449;52.016;5.414;2022-10-31T13:24:34;101487.38;;;18.14;71.40
72444;BME280;60449;52.016;5.414;2022-10-31T13:25:38;101491.72;;;18.21;71.72
72444;BME280;60449;52.016;5.414;2022-10-31T13:26:37;101492.41;;;18.34;72.31
72444;BME280;60449;52.016;5.414;2022-10-31T13:27:43;101494.25;;;18.31;71.81
72444;BME280;60449;52.016;5.414;2022-10-31T13:28:44;101490.94;;;18.71;70.70
72444;BME280;60449;52.016;5.414;2022-10-31T13:29:42;101487.94;;;18.91;69.34
72444;BME280;60449;52.016;5.414;2022-10-31T13:30:42;101485.66;;;18.68;70.22
72444;BME280;60449;52.016;5.414;2022-10-31T13:31:33;101485.81;;;19.10;69.79
72444;BME280;60449;52.016;5.414;2022-10-31T13:32:28;101487.03;;;19.43;68.31
72444;BME280;60449;52.016;5.414;2022-10-31T13:33:34;101486.34;;;19.31;67.70
72444;BME280;60449;52.016;5.414;2022-10-31T13:34:34;101479.69;;;19.05;68.07
72444;BME280;60449;52.016;5.414;2022-10-31T13:35:34;101484.81;;;18.64;68.88
72444;BME280;60449;52.016;5.414;2022-10-31T13:36:37;101468.59;;;18.77;69.22
72444;BME280;60449;52.016;5.414;2022-10-31T13:37:37;101470.53;;;18.67;69.92
72444;BME280;60449;52.016;5.414;2022-10-31T13:38:38;101470.41;;;18.18;71.49
72444;BME280;60449;52.016;5.414;2022-10-31T13:39:46;101472.44;;;18.59;70.10
72444;BME280;60449;52.016;5.414;2022-10-31T13:40:54;101464.94;;;18.27;71.61
72444;BME280;60449;52.016;5.414;2022-10-31T13:41:56;101460.44;;;18.30;71.90
72444;BME280;60449;52.016;5.414;2022-10-31T13:42:59;101458.19;;;18.61;70.19
72444;BME280;60449;52.016;5.414;2022-10-31T13:44:14;101449.91;;;18.75;69.62
72444;BME280;60449;52.016;5.414;2022-10-31T13:45:12;101456.94;;;18.79;69.75
72444;BME280;60449;52.016;5.414;2022-10-31T13:46:21;101454.06;;;18.40;70.65
72444;BME280;60449;52.016;5.414;2022-10-31T13:47:23;101447.09;;;18.30;71.59
72444;BME280;60449;52.016;5.414;2022-10-31T13:48:34;101443.88;;;18.64;70.33
72444;BME280;60449;52.016;5.414;2022-10-31T13:49:40;101439.00;;;18.89;70.00
72444;BME280;60449;52.016;5.414;2022-10-31T13:50:32;101438.81;;;19.00;69.72
72444;BME280;60449;52.016;5.414;2022-10-31T13:51:27;101437.13;;;18.93;69.87
72444;BME280;60449;52.016;5.414;2022-10-31T13:52:24;101438.69;;;19.08;69.26
72444;BME280;60449;52.016;5.414;2022-10-31T13:53:19;101439.75;;;18.44;71.47
72444;BME280;60449;52.016;5.414;2022-10-31T13:54:21;101432.44;;;18.55;71.30
72444;BME280;60449;52.016;5.414;2022-10-31T13:55:39;101434.72;;;18.79;70.67
72444;BME280;60449;52.016;5.414;2022-10-31T13:56:34;101437.31;;;18.83;70.14
72444;BME280;60449;52.016;5.414;2022-10-31T13:57:31;101428.97;;;19.04;69.43
72444;BME280;60449;52.016;5.414;2022-10-31T13:58:26;101427.63;;;18.76;69.72
72444;BME280;60449;52.016;5.414;2022-10-31T13:59:21;101424.09;;;18.76;70.34
72444;BME280;60449;52.016;5.414;2022-10-31T14:00:24;101433.38;;;18.54;70.78
72444;BME280;60449;52.016;5.414;2022-10-31T14:01:19;101427.16;;;18.52;71.03
72444;BME280;60449;52.016;5.414;2022-10-31T14:02:15;101423.97;;;18.82;70.09
72444;BME280;60449;52.016;5.414;2022-10-31T14:03:19;101426.53;;;18.36;71.16
72444;BME280;60449;52.016;5.414;2022-10-31T14:04:18;101427.84;;;18.65;70.42
72444;BME280;60449;52.016;5.414;2022-10-31T14:05:23;101428.03;;;18.54;70.39
72444;BME280;60449;52.016;5.414;2022-10-31T14:06:16;101427.00;;;18.62;70.31
72444;BME280;60449;52.016;5.414;2022-10-31T14:07:09;101424.28;;;18.08;71.84
72444;BME280;60449;52.016;5.414;2022-10-31T14:08:04;101416.41;;;17.99;71.79
72444;BME280;60449;52.016;5.414;2022-10-31T14:09:19;101414.88;;;17.81;72.72
72444;BME280;60449;52.016;5.414;2022-10-31T14:10:27;101412.53;;;17.56;73.99
72444;BME280;60449;52.016;5.414;2022-10-31T14:11:25;101416.16;;;17.52;74.12
72444;BME280;60449;52.016;5.414;2022-10-31T14:12:26;101418.41;;;17.83;73.41
72444;BME280;60449;52.016;5.414;2022-10-31T14:13:24;101412.38;;;17.68;73.37
72444;BME280;60449;52.016;5.414;2022-10-31T14:14:22;101406.34;;;17.55;74.25
72444;BME280;60449;52.016;5.414;2022-10-31T14:15:17;101410.97;;;17.41;73.73
72444;BME280;60449;52.016;5.414;2022-10-31T14:16:20;101408.91;;;17.63;73.64
72444;BME280;60449;52.016;5.414;2022-10-31T14:17:21;101414.91;;;17.79;73.19
72444;BME280;60449;52.016;5.414;2022-10-31T14:18:22;101411.31;;;17.80;72.91
72444;BME280;60449;52.016;5.414;2022-10-31T14:19:17;101402.88;;;17.49;74.70
72444;BME280;60449;52.016;5.414;2022-10-31T14:20:40;101398.41;;;17.52;73.32
72444;BME280;60449;52.016;5.414;2022-10-31T14:21:38;101404.84;;;17.34;74.57
72444;BME280;60449;52.016;5.414;2022-10-31T14:22:31;101405.19;;;17.74;73.48
72444;BME280;60449;52.016;5.414;2022-10-31T14:23:36;101402.16;;;18.00;72.50
72444;BME280;60449;52.016;5.414;2022-10-31T14:24:36;101400.16;;;17.53;73.29
72444;BME280;60449;52.016;5.414;2022-10-31T14:25:30;101392.31;;;17.41;74.26
72444;BME280;60449;52.016;5.414;2022-10-31T14:26:35;101397.97;;;17.82;73.14
72444;BME280;60449;52.016;5.414;2022-10-31T14:27:34;101395.56;;;17.63;73.54
72444;BME280;60449;52.016;5.414;2022-10-31T14:28:35;101393.72;;;17.70;73.78
72444;BME280;60449;52.016;5.414;2022-10-31T14:29:27;101390.97;;;17.75;73.19
72444;BME280;60449;52.016;5.414;2022-10-31T14:30:23;101383.84;;;17.74;73.42
72444;BME280;60449;52.016;5.414;2022-10-31T14:31:34;101389.16;;;17.77;72.95
72444;BME280;60449;52.016;5.414;2022-10-31T14:32:27;101387.53;;;17.66;73.43
72444;BME280;60449;52.016;5.414;2022-10-31T14:33:19;101381.81;;;17.28;74.22
72444;BME280;60449;52.016;5.414;2022-10-31T14:34:23;101374.84;;;17.15;75.42
72444;BME280;60449;52.016;5.414;2022-10-31T14:35:16;101382.84;;;17.17;75.14
72444;BME280;60449;52.016;5.414;2022-10-31T14:36:12;101375.75;;;17.16;75.25
72444;BME280;60449;52.016;5.414;2022-10-31T14:37:34;101363.91;;;17.40;74.44
72444;BME280;60449;52.016;5.414;2022-10-31T14:38:58;101355.16;;;17.28;74.38